Time;durP1;ratioP1;P1;durP2;ratioP2;P2;SDS_P1;SDS_P2;PMS_P1;PMS_P2;Temp;Humidity;BMP_temperature;BMP_pressure;BME280_temperature;BME280_humidity;BME280_pressure;Samples;Min_cycle;Max_cycle;Signal;HPM_P1;HPM_P2
2023/08/06 00:00:42;;;;;;;5.97;1.50;;;16.30;70.10;;;;;;5053144;28;20033;-64
2023/08/06 00:03:10;;;;;;;4.47;1.23;;;16.30;69.90;;;;;;5053985;28;20102;-64
2023/08/06 00:05:37;;;;;;;5.78;1.60;;;16.30;70.20;;;;;;5052696;28;20053;-64
2023/08/06 00:08:05;;;;;;;7.88;1.50;;;16.40;68.60;;;;;;5053040;28;20025;-64
2023/08/06 00:10:32;;;;;;;6.20;1.73;;;16.30;69.10;;;;;;5053143;28;20498;-64
2023/08/06 00:13:00;;;;;;;5.50;1.50;;;16.40;70.20;;;;;;5052989;28;20048;-63
2023/08/06 00:15:27;;;;;;;6.70;1.35;;;16.30;68.90;;;;;;5052842;28;20025;-64
2023/08/06 00:17:54;;;;;;;4.30;1.42;;;16.40;69.10;;;;;;5053740;28;20111;-64
2023/08/06 00:20:22;;;;;;;7.22;1.63;;;16.30;69.60;;;;;;5053577;28;20025;-64
2023/08/06 00:22:49;;;;;;;4.20;1.33;;;16.60;69.30;;;;;;5052665;28;20071;-64
2023/08/06 00:25:17;;;;;;;7.40;1.67;;;16.80;69.20;;;;;;5052733;28;20435;-64
2023/08/06 00:27:44;;;;;;;4.50;1.55;;;17.00;68.40;;;;;;5053646;28;20044;-64
2023/08/06 00:30:12;;;;;;;5.13;1.50;;;17.40;67.70;;;;;;5052905;28;20382;-64
2023/08/06 00:32:40;;;;;;;7.10;1.70;;;17.70;67.00;;;;;;5052762;28;20096;-64
2023/08/06 00:35:08;;;;;;;5.93;1.80;;;18.00;65.90;;;;;;5055098;28;20462;-64
2023/08/06 00:37:35;;;;;;;4.68;1.60;;;18.00;65.40;;;;;;5056350;28;20506;-64
2023/08/06 00:40:03;;;;;;;5.15;1.27;;;18.10;64.90;;;;;;5056568;28;20108;-64
2023/08/06 00:42:30;;;;;;;6.95;1.60;;;18.40;64.90;;;;;;5057824;28;20020;-67
2023/08/06 00:44:57;;;;;;;6.43;1.85;;;18.40;64.80;;;;;;5056514;28;20112;-64
2023/08/06 00:47:25;;;;;;;6.07;1.50;;;18.30;65.10;;;;;;5056630;28;20522;-64
2023/08/06 00:49:53;;;;;;;6.95;1.63;;;18.30;64.60;;;;;;5056636;28;20025;-65
2023/08/06 00:52:21;;;;;;;5.72;1.35;;;18.30;64.50;;;;;;5057798;28;20029;-65
2023/08/06 00:54:48;;;;;;;6.72;1.63;;;18.00;64.70;;;;;;5057873;28;20028;-65
2023/08/06 00:57:16;;;;;;;5.47;1.50;;;17.60;65.10;;;;;;5057566;28;20032;-65
2023/08/06 00:59:44;;;;;;;11.20;1.90;;;17.60;65.20;;;;;;5057425;28;20407;-65
2023/08/06 01:02:11;;;;;;;5.75;1.35;;;17.50;66.20;;;;;;5057551;28;20051;-65
2023/08/06 01:04:39;;;;;;;7.53;1.70;;;17.80;65.80;;;;;;5057423;28;20029;-65
2023/08/06 01:07:36;;;;;;;6.57;1.65;;;18.00;65.80;;;;;;5056886;28;20088;-65
2023/08/06 01:10:27;;;;;;;6.45;2.17;;;17.90;65.50;;;;;;5057140;28;20045;-64
2023/08/06 01:13:25;;;;;;;7.80;1.85;;;17.60;66.70;;;;;;5056993;28;20459;-63
2023/08/06 01:15:59;;;;;;;5.75;1.50;;;17.70;66.00;;;;;;5057085;28;20087;-64
2023/08/06 01:18:27;;;;;;;7.20;2.92;;;17.80;64.90;;;;;;5040063;28;20041;-64
2023/08/06 01:20:54;;;;;;;8.13;1.85;;;17.80;65.70;;;;;;5055873;28;20032;-64
2023/08/06 01:23:23;;;;;;;6.82;1.58;;;17.80;65.00;;;;;;5055600;28;20501;-63
2023/08/06 01:25:59;;;;;;;5.50;1.52;;;18.00;65.10;;;;;;5055807;28;20139;-64
2023/08/06 01:28:48;;;;;;;6.95;1.58;;;17.80;65.60;;;;;;5056503;28;20089;-64
2023/08/06 01:31:27;;;;;;;5.90;1.40;;;18.00;66.10;;;;;;5056369;28;20035;-64
2023/08/06 01:33:56;;;;;;;5.93;1.50;;;17.80;65.80;;;;;;5056477;28;20104;-64
2023/08/06 01:36:25;;;;;;;5.82;1.90;;;17.90;65.80;;;;;;5056524;28;20017;-64
2023/08/06 01:38:54;;;;;;;5.95;1.60;;;18.00;66.20;;;;;;5055464;28;20024;-64
2023/08/06 01:41:21;;;;;;;6.65;1.77;;;17.90;65.70;;;;;;5055515;28;20017;-64
2023/08/06 01:43:49;;;;;;;5.70;1.75;;;17.80;66.00;;;;;;5056416;28;20351;-64
2023/08/06 01:46:17;;;;;;;7.18;1.80;;;18.00;65.40;;;;;;5055516;28;20036;-64
2023/08/06 01:48:45;;;;;;;4.30;1.80;;;17.90;65.50;;;;;;5055027;28;20028;-64
2023/08/06 01:51:12;;;;;;;5.55;1.80;;;18.00;64.90;;;;;;5055657;28;20351;-64
2023/08/06 01:53:40;;;;;;;5.45;1.38;;;17.80;65.20;;;;;;5055536;28;20044;-64
2023/08/06 01:56:07;;;;;;;5.53;1.90;;;18.00;64.80;;;;;;5056492;28;20357;-63
2023/08/06 01:58:34;;;;;;;3.55;1.25;;;18.00;64.70;;;;;;5054764;28;20028;-64
2023/08/06 02:01:03;;;;;;;6.25;1.30;;;18.00;65.00;;;;;;5055510;28;20437;-63
2023/08/06 02:03:30;;;;;;;6.53;1.50;;;17.90;65.30;;;;;;5056131;28;20106;-64
2023/08/06 02:05:58;;;;;;;4.65;1.40;;;18.00;64.30;;;;;;5055749;28;20167;-64
2023/08/06 02:08:27;;;;;;;6.57;1.60;;;18.10;64.20;;;;;;5054752;28;20028;-65
2023/08/06 02:10:55;;;;;;;5.70;1.85;;;18.30;64.10;;;;;;5054483;28;20028;-65
2023/08/06 02:13:22;;;;;;;5.85;1.50;;;18.50;63.10;;;;;;5054616;28;20037;-65
2023/08/06 02:15:50;;;;;;;4.30;1.45;;;18.20;63.90;;;;;;5054398;28;20021;-65
2023/08/06 02:18:17;;;;;;;4.82;1.33;;;18.30;63.70;;;;;;5055508;28;20021;-65
2023/08/06 02:20:55;;;;;;;5.43;1.50;;;18.60;63.30;;;;;;5054737;28;20107;-64
2023/08/06 02:23:22;;;;;;;4.47;1.25;;;18.50;63.00;;;;;;5054518;28;20024;-65
2023/08/06 02:25:57;;;;;;;4.45;1.15;;;18.60;63.30;;;;;;5055571;28;20075;-65
2023/08/06 02:28:25;;;;;;;4.28;1.80;;;18.60;62.90;;;;;;5055423;28;20064;-65
2023/08/06 02:30:53;;;;;;;6.97;1.60;;;18.50;63.40;;;;;;5054363;28;20440;-65
2023/08/06 02:33:20;;;;;;;5.85;1.60;;;18.40;63.40;;;;;;5054058;28;20394;-65
2023/08/06 02:35:48;;;;;;;5.53;1.42;;;18.40;62.90;;;;;;5055321;28;20071;-65
2023/08/06 02:38:16;;;;;;;8.27;1.83;;;18.40;63.70;;;;;;5053824;28;20083;-65
2023/08/06 02:40:47;;;;;;;8.10;1.58;;;18.50;62.50;;;;;;5054986;28;20017;-65
2023/08/06 02:43:15;;;;;;;2.83;1.30;;;18.60;63.10;;;;;;5054925;28;20036;-65
2023/08/06 02:45:42;;;;;;;7.10;1.90;;;18.50;62.60;;;;;;5053895;28;20259;-65
2023/08/06 02:48:10;;;;;;;6.10;1.40;;;18.60;61.60;;;;;;5053838;28;20025;-65
2023/08/06 02:50:42;;;;;;;8.40;1.90;;;18.70;61.90;;;;;;5054885;28;20363;-64
2023/08/06 02:53:09;;;;;;;5.28;1.50;;;18.70;62.70;;;;;;5053670;28;20036;-65
2023/08/06 02:55:37;;;;;;;4.82;1.30;;;19.10;61.00;;;;;;5053133;28;20124;-65
2023/08/06 02:58:05;;;;;;;7.88;3.10;;;19.00;60.30;;;;;;5053932;28;20024;-65
2023/08/06 03:00:32;;;;;;;6.10;1.63;;;18.90;61.50;;;;;;5052868;28;20021;-63
2023/08/06 03:03:00;;;;;;;4.50;1.52;;;18.80;61.20;;;;;;5054456;28;20469;-65
2023/08/06 03:05:27;;;;;;;4.78;1.50;;;18.80;61.50;;;;;;5053521;28;20071;-63
2023/08/06 03:07:55;;;;;;;5.38;1.30;;;18.70;61.60;;;;;;5053443;28;20439;-63
2023/08/06 03:10:22;;;;;;;6.90;1.25;;;18.50;61.50;;;;;;5053879;28;20432;-63
2023/08/06 03:12:50;;;;;;;5.60;1.38;;;18.30;61.10;;;;;;5053712;28;20036;-63
2023/08/06 03:15:17;;;;;;;5.18;1.10;;;18.30;61.10;;;;;;5053752;28;20111;-65
2023/08/06 03:17:45;;;;;;;5.40;1.20;;;18.10;62.40;;;;;;5054623;28;20434;-63
2023/08/06 03:20:12;;;;;;;3.92;1.17;;;18.10;62.80;;;;;;5055381;28;20044;-70
2023/08/06 03:22:40;;;;;;;3.53;1.50;;;18.20;61.90;;;;;;5054562;28;20347;-70
2023/08/06 03:25:07;;;;;;;4.78;1.60;;;18.30;62.70;;;;;;5054294;28;20031;-70
2023/08/06 03:27:35;;;;;;;6.22;2.20;;;18.20;63.50;;;;;;5053349;28;20367;-70
2023/08/06 03:30:03;;;;;;;4.75;1.70;;;18.00;63.50;;;;;;5054575;28;20351;-70
2023/08/06 03:32:30;;;;;;;7.35;1.88;;;18.00;63.80;;;;;;5054469;28;20025;-70
2023/08/06 03:34:58;;;;;;;8.55;2.30;;;18.00;63.30;;;;;;5053400;28;20021;-70
2023/08/06 03:37:25;;;;;;;4.72;1.60;;;17.90;64.50;;;;;;5053350;28;20052;-70
2023/08/06 03:39:52;;;;;;;6.53;1.40;;;18.00;63.60;;;;;;5053172;28;20039;-71
2023/08/06 03:42:20;;;;;;;4.07;1.50;;;18.00;63.00;;;;;;5052668;28;20032;-71
2023/08/06 03:44:47;;;;;;;3.67;1.30;;;18.00;63.20;;;;;;5053189;28;20393;-71
2023/08/06 03:47:15;;;;;;;3.05;1.10;;;17.90;63.80;;;;;;5052565;28;20021;-70
2023/08/06 03:49:43;;;;;;;7.18;1.20;;;17.80;63.50;;;;;;5052508;28;20063;-69
2023/08/06 03:52:10;;;;;;;7.55;1.20;;;17.80;64.20;;;;;;5054020;28;20025;-70
2023/08/06 03:54:39;;;;;;;3.95;1.40;;;18.00;63.80;;;;;;5052771;28;20040;-70
2023/08/06 03:57:07;;;;;;;7.57;2.83;;;17.90;63.70;;;;;;5054072;28;20044;-70
2023/08/06 03:59:34;;;;;;;3.97;1.20;;;18.10;63.80;;;;;;5054189;28;20107;-70
2023/08/06 04:02:02;;;;;;;5.43;1.27;;;18.10;63.20;;;;;;5053172;28;20036;-70
2023/08/06 04:04:29;;;;;;;3.72;1.38;;;18.10;63.30;;;;;;5054136;28;20021;-70
2023/08/06 04:06:57;;;;;;;5.10;1.60;;;17.90;63.90;;;;;;5053835;28;20049;-70
2023/08/06 04:09:24;;;;;;;6.28;1.30;;;17.90;63.30;;;;;;5055382;28;20355;-70
2023/08/06 04:11:52;;;;;;;6.80;1.50;;;17.70;64.10;;;;;;5057461;28;20021;-70
2023/08/06 04:14:19;;;;;;;7.55;1.40;;;17.70;64.10;;;;;;5057488;28;20021;-70
2023/08/06 04:16:47;;;;;;;5.63;1.75;;;17.70;64.70;;;;;;5056964;28;20048;-64
2023/08/06 04:19:14;;;;;;;2.97;1.10;;;17.60;64.70;;;;;;5057948;28;20032;-70
2023/08/06 04:21:42;;;;;;;5.70;1.35;;;17.60;65.00;;;;;;5058025;28;20025;-70
2023/08/06 04:24:09;;;;;;;5.28;1.20;;;17.50;64.60;;;;;;5057776;28;20017;-64
2023/08/06 04:26:37;;;;;;;5.70;1.63;;;17.60;64.90;;;;;;5058001;28;20451;-69
2023/08/06 04:29:04;;;;;;;6.10;1.60;;;17.60;64.50;;;;;;5057395;28;20021;-69
2023/08/06 04:31:32;;;;;;;3.72;1.30;;;17.40;65.10;;;;;;5057626;28;20485;-69
2023/08/06 04:34:00;;;;;;;5.43;1.38;;;17.30;65.10;;;;;;5056759;28;20029;-69
2023/08/06 04:36:27;;;;;;;5.97;1.50;;;17.30;65.00;;;;;;5057401;28;20040;-70
2023/08/06 04:38:55;;;;;;;3.47;1.35;;;17.40;64.80;;;;;;5055917;28;20025;-64
2023/08/06 04:41:22;;;;;;;4.65;1.20;;;17.50;64.60;;;;;;5057410;28;20814;-64
2023/08/06 04:43:49;;;;;;;4.55;1.42;;;17.50;64.50;;;;;;5055747;28;20025;-64
2023/08/06 04:46:17;;;;;;;5.07;1.30;;;17.40;64.00;;;;;;5056313;28;20120;-70
2023/08/06 04:48:44;;;;;;;4.05;1.20;;;17.20;64.70;;;;;;5057106;28;20032;-64
2023/08/06 04:51:12;;;;;;;3.70;1.50;;;17.30;65.10;;;;;;5057012;28;20024;-64
2023/08/06 04:53:40;;;;;;;3.25;1.23;;;17.50;64.30;;;;;;5056049;28;20063;-70
2023/08/06 04:56:08;;;;;;;4.38;1.20;;;17.50;64.90;;;;;;5056937;28;20021;-70
2023/08/06 04:58:35;;;;;;;4.50;1.65;;;17.30;64.50;;;;;;5055526;28;20062;-69
2023/08/06 05:01:03;;;;;;;5.13;1.65;;;17.20;65.50;;;;;;5056954;28;20100;-70
2023/08/06 05:03:30;;;;;;;8.63;1.70;;;17.20;65.30;;;;;;5056069;28;20021;-74
2023/08/06 05:05:59;;;;;;;5.00;1.58;;;17.30;65.90;;;;;;5055547;28;20045;-74
2023/08/06 05:08:26;;;;;;;6.55;1.83;;;17.20;65.60;;;;;;5056726;28;20406;-64
2023/08/06 05:10:54;;;;;;;4.45;1.60;;;17.20;66.60;;;;;;5056439;28;20099;-69
2023/08/06 05:13:21;;;;;;;7.30;2.33;;;17.20;66.40;;;;;;5055126;28;20362;-70
2023/08/06 05:15:49;;;;;;;3.92;1.65;;;17.30;66.00;;;;;;5055682;28;20033;-65
2023/08/06 05:18:16;;;;;;;3.58;1.40;;;17.30;65.70;;;;;;5056126;28;20082;-65
2023/08/06 05:20:44;;;;;;;3.53;1.42;;;17.20;66.10;;;;;;5054632;28;20021;-65
2023/08/06 05:23:11;;;;;;;4.90;1.33;;;17.40;66.00;;;;;;5057070;28;20021;-65
2023/08/06 05:25:39;;;;;;;7.88;1.60;;;17.40;65.60;;;;;;5056911;28;20325;-65
2023/08/06 05:28:07;;;;;;;6.80;1.77;;;17.20;65.40;;;;;;5056921;28;20025;-70
2023/08/06 05:30:37;;;;;;;3.60;1.30;;;17.20;65.20;;;;;;5056816;28;20025;-67
2023/08/06 05:33:04;;;;;;;7.20;1.73;;;17.10;65.80;;;;;;5056756;28;20060;-65
2023/08/06 05:35:32;;;;;;;6.35;1.65;;;17.10;66.00;;;;;;5056639;28;20086;-70
2023/08/06 05:37:59;;;;;;;4.95;1.58;;;17.10;66.00;;;;;;5055724;28;20021;-70
2023/08/06 05:40:27;;;;;;;5.22;1.83;;;17.20;66.40;;;;;;5055314;28;20363;-65
2023/08/06 05:42:55;;;;;;;4.97;1.60;;;17.30;66.30;;;;;;5055360;28;20028;-65
2023/08/06 05:45:23;;;;;;;6.32;1.70;;;17.30;66.50;;;;;;5055575;28;20035;-70
2023/08/06 05:47:50;;;;;;;6.95;1.90;;;17.30;65.80;;;;;;5055136;28;20040;-65
2023/08/06 05:50:18;;;;;;;6.07;1.60;;;17.20;66.30;;;;;;5054382;28;20047;-65
2023/08/06 05:52:45;;;;;;;5.32;1.55;;;17.20;65.50;;;;;;5056351;28;20017;-65
2023/08/06 05:55:12;;;;;;;5.43;1.67;;;17.20;65.40;;;;;;5055384;28;20036;-71
2023/08/06 05:57:40;;;;;;;5.20;1.60;;;17.60;65.00;;;;;;5055299;28;20035;-71
2023/08/06 06:00:08;;;;;;;4.53;1.42;;;18.70;61.80;;;;;;5056038;28;20020;-71
2023/08/06 06:02:35;;;;;;;3.40;1.10;;;19.60;59.00;;;;;;5054472;28;20017;-71
2023/08/06 06:05:03;;;;;;;4.43;1.75;;;20.20;56.40;;;;;;5055245;28;20013;-70
2023/08/06 06:07:30;;;;;;;4.55;1.40;;;19.10;59.70;;;;;;5054780;28;20051;-65
2023/08/06 06:09:58;;;;;;;5.50;1.40;;;20.60;56.40;;;;;;5056097;28;20155;-65
2023/08/06 06:12:26;;;;;;;3.58;1.10;;;21.30;53.80;;;;;;5055495;28;20021;-62
2023/08/06 06:14:53;;;;;;;3.85;1.88;;;20.50;55.30;;;;;;5056162;28;20068;-68
2023/08/06 06:17:23;;;;;;;6.90;1.70;;;18.90;59.00;;;;;;5054574;28;20029;-66
2023/08/06 06:19:50;;;;;;;4.68;1.73;;;18.20;61.00;;;;;;5055119;28;20029;-70
2023/08/06 06:22:18;;;;;;;9.50;1.92;;;18.00;61.70;;;;;;5055326;28;20332;-73
2023/08/06 06:24:45;;;;;;;3.22;1.45;;;17.80;62.50;;;;;;5055577;28;20359;-67
2023/08/06 06:27:13;;;;;;;8.38;2.05;;;17.50;63.00;;;;;;5055600;28;20017;-67
2023/08/06 06:29:41;;;;;;;6.35;1.90;;;17.40;63.40;;;;;;5055579;28;20061;-72
2023/08/06 06:32:08;;;;;;;6.90;1.83;;;17.20;63.50;;;;;;5055110;28;20090;-72
2023/08/06 06:34:36;;;;;;;3.45;1.50;;;17.20;63.70;;;;;;5050577;28;20033;-73
2023/08/06 06:37:04;;;;;;;4.03;1.40;;;17.30;64.20;;;;;;5054944;28;20108;-72
2023/08/06 06:39:31;;;;;;;4.05;1.45;;;17.10;64.30;;;;;;5055126;28;20032;-73
2023/08/06 06:41:59;;;;;;;5.65;1.45;;;17.00;64.70;;;;;;5054356;28;20120;-73
2023/08/06 06:44:26;;;;;;;4.50;1.52;;;17.00;64.70;;;;;;5054473;28;20029;-74
2023/08/06 06:46:54;;;;;;;4.82;1.45;;;16.80;65.40;;;;;;5054188;28;20021;-73
2023/08/06 06:49:21;;;;;;;2.85;1.25;;;16.60;65.20;;;;;;5053547;28;20096;-72
2023/08/06 06:51:49;;;;;;;3.15;1.25;;;16.50;65.70;;;;;;5052142;28;20108;-70
2023/08/06 06:54:16;;;;;;;4.18;1.38;;;16.20;66.40;;;;;;5052820;28;20033;-69
2023/08/06 06:56:44;;;;;;;2.67;1.23;;;16.10;67.20;;;;;;5054850;28;20108;-65
2023/08/06 06:59:11;;;;;;;3.53;1.40;;;16.10;67.20;;;;;;5053137;28;20037;-64
2023/08/06 07:01:39;;;;;;;5.32;1.20;;;16.00;67.60;;;;;;5053791;28;20119;-64
2023/08/06 07:04:06;;;;;;;2.78;1.30;;;16.00;67.90;;;;;;5054036;28;20028;-66
2023/08/06 07:06:34;;;;;;;3.65;1.50;;;16.00;67.80;;;;;;5054577;28;20463;-65
2023/08/06 07:09:01;;;;;;;4.15;1.38;;;15.80;68.00;;;;;;5054950;28;20104;-71
2023/08/06 07:11:32;;;;;;;5.15;1.27;;;15.80;68.20;;;;;;5053906;28;20102;-71
2023/08/06 07:14:00;;;;;;;3.67;1.40;;;15.70;68.30;;;;;;5054310;28;20519;-71
2023/08/06 07:16:29;;;;;;;7.22;2.88;;;15.70;68.50;;;;;;5054095;28;20677;-65
2023/08/06 07:18:56;;;;;;;5.15;1.38;;;15.60;68.80;;;;;;5054897;28;20079;-66
2023/08/06 07:21:24;;;;;;;2.65;1.40;;;15.50;69.20;;;;;;5054381;28;20060;-72
2023/08/06 07:23:51;;;;;;;3.38;1.30;;;15.50;69.20;;;;;;5054419;28;20043;-71
2023/08/06 07:26:19;;;;;;;3.35;1.52;;;15.50;69.20;;;;;;5055154;28;20031;-72
2023/08/06 07:28:46;;;;;;;3.65;1.70;;;15.40;69.60;;;;;;5054734;28;20031;-71
2023/08/06 07:31:14;;;;;;;3.72;1.60;;;15.40;69.80;;;;;;5054852;28;20025;-71
2023/08/06 07:33:41;;;;;;;5.72;2.05;;;15.30;70.00;;;;;;5054970;28;20021;-65
2023/08/06 07:36:13;;;;;;;4.28;1.85;;;15.30;70.10;;;;;;5053909;28;20029;-65
2023/08/06 07:38:41;;;;;;;3.90;1.50;;;15.20;70.50;;;;;;5054976;28;20052;-64
2023/08/06 07:41:10;;;;;;;6.10;1.75;;;15.10;70.70;;;;;;5054821;28;20025;-71
2023/08/06 07:43:37;;;;;;;8.63;1.90;;;15.10;70.60;;;;;;5052794;28;20025;-71
2023/08/06 07:46:05;;;;;;;6.13;1.80;;;15.10;70.70;;;;;;5054449;28;20025;-72
2023/08/06 07:48:33;;;;;;;2.95;1.80;;;15.00;71.00;;;;;;5053476;28;20028;-64
2023/08/06 07:51:00;;;;;;;7.15;2.22;;;15.00;71.00;;;;;;5053691;28;20070;-65
2023/08/06 07:53:29;;;;;;;3.92;1.65;;;15.00;71.20;;;;;;5054765;28;20076;-71
2023/08/06 07:55:57;;;;;;;6.55;1.92;;;14.90;71.00;;;;;;5054671;28;20025;-72
2023/08/06 07:58:29;;;;;;;5.93;2.58;;;14.90;71.40;;;;;;5053709;28;20438;-72
2023/08/06 08:00:57;;;;;;;6.57;2.40;;;14.80;71.60;;;;;;5055300;28;20033;-71
2023/08/06 08:03:24;;;;;;;4.53;2.00;;;14.80;71.80;;;;;;5054588;28;20032;-70
2023/08/06 08:05:58;;;;;;;5.53;2.22;;;14.80;71.90;;;;;;5053527;28;20045;-70
2023/08/06 08:08:26;;;;;;;5.13;1.92;;;14.70;72.10;;;;;;5053624;28;20032;-70
2023/08/06 08:10:55;;;;;;;7.22;2.30;;;14.60;72.60;;;;;;5054585;28;20029;-70
2023/08/06 08:13:22;;;;;;;6.07;2.30;;;14.50;73.00;;;;;;5054510;28;20108;-71
2023/08/06 08:15:50;;;;;;;6.68;2.38;;;14.40;73.30;;;;;;5053345;28;20025;-71
2023/08/06 08:18:17;;;;;;;10.65;2.85;;;14.20;74.00;;;;;;5053183;28;20113;-71
2023/08/06 08:20:45;;;;;;;5.05;2.17;;;14.10;74.00;;;;;;5053336;28;20041;-71
2023/08/06 08:23:12;;;;;;;4.40;2.30;;;14.10;74.30;;;;;;5053556;28;20021;-71
2023/08/06 08:25:40;;;;;;;5.70;3.13;;;14.00;74.90;;;;;;5054459;28;20013;-71
2023/08/06 08:28:08;;;;;;;6.20;2.88;;;13.90;75.40;;;;;;5054517;28;20017;-71
2023/08/06 08:30:36;;;;;;;7.15;2.78;;;13.60;76.90;;;;;;5054409;28;20494;-71
2023/08/06 08:33:03;;;;;;;8.38;2.90;;;13.60;77.10;;;;;;5054385;28;20024;-72
2023/08/06 08:35:31;;;;;;;8.38;3.30;;;13.50;77.80;;;;;;5053326;28;20052;-71
2023/08/06 08:37:58;;;;;;;5.35;2.55;;;13.50;77.60;;;;;;5054318;28;20028;-71
2023/08/06 08:40:39;;;;;;;7.25;2.70;;;13.50;78.10;;;;;;5053335;28;20048;-71
2023/08/06 08:43:07;;;;;;;8.73;2.80;;;13.50;77.80;;;;;;5054340;28;20447;-71
2023/08/06 08:45:40;;;;;;;8.25;2.80;;;13.40;78.60;;;;;;5053215;28;20036;-71
2023/08/06 08:48:08;;;;;;;7.00;2.75;;;13.30;78.80;;;;;;5053181;28;20025;-71
2023/08/06 08:50:36;;;;;;;5.22;4.07;;;13.40;78.90;;;;;;5054223;28;20359;-71
2023/08/06 08:53:04;;;;;;;10.88;4.53;;;13.40;78.40;;;;;;5054192;28;20043;-70
2023/08/06 08:55:33;;;;;;;7.25;4.40;;;13.30;79.10;;;;;;5055506;28;20155;-71
2023/08/06 08:58:01;;;;;;;7.63;4.80;;;13.20;79.50;;;;;;5056633;28;20450;-71
2023/08/06 09:00:29;;;;;;;7.95;4.25;;;13.30;79.20;;;;;;5057708;28;20025;-71
2023/08/06 09:02:59;;;;;;;8.32;4.45;;;13.20;79.50;;;;;;5057950;28;20017;-71
2023/08/06 09:05:33;;;;;;;8.27;4.18;;;13.20;80.10;;;;;;5056459;28;20036;-71
2023/08/06 09:08:04;;;;;;;8.32;4.72;;;13.30;80.00;;;;;;5056638;28;20029;-72
2023/08/06 09:10:33;;;;;;;9.48;4.60;;;13.20;79.80;;;;;;5057660;28;20021;-72
2023/08/06 09:13:02;;;;;;;8.70;5.10;;;13.30;79.90;;;;;;5057438;28;20029;-72
2023/08/06 09:15:30;;;;;;;10.23;4.60;;;13.30;79.70;;;;;;5057441;28;20386;-72
2023/08/06 09:17:58;;;;;;;10.07;4.85;;;13.10;80.40;;;;;;5057248;28;20025;-72
2023/08/06 09:20:26;;;;;;;7.68;4.68;;;13.00;80.60;;;;;;5057233;28;20360;-72
2023/08/06 09:22:56;;;;;;;9.20;4.50;;;13.00;80.90;;;;;;5056317;28;20021;-72
2023/08/06 09:25:26;;;;;;;9.65;4.78;;;13.00;80.50;;;;;;5056339;28;20067;-71
2023/08/06 09:27:53;;;;;;;7.85;4.65;;;13.00;80.90;;;;;;5055888;28;20035;-70
2023/08/06 09:30:50;;;;;;;8.60;5.05;;;12.90;81.10;;;;;;5056887;28;20473;-67
2023/08/06 09:33:22;;;;;;;7.53;4.40;;;12.90;81.30;;;;;;5039701;28;20075;-66
2023/08/06 09:35:50;;;;;;;10.13;4.55;;;13.00;81.40;;;;;;5056178;28;20031;-67
2023/08/06 09:38:17;;;;;;;10.07;4.57;;;13.00;81.20;;;;;;5056008;28;20060;-68
2023/08/06 09:40:45;;;;;;;9.95;5.30;;;13.00;81.10;;;;;;5057056;28;20116;-67
2023/08/06 09:43:13;;;;;;;6.82;4.78;;;12.90;81.30;;;;;;5055956;28;20385;-68
2023/08/06 09:45:42;;;;;;;8.60;4.72;;;12.80;81.70;;;;;;5057032;28;20016;-67
2023/08/06 09:48:11;;;;;;;7.55;4.30;;;12.90;81.30;;;;;;5056696;28;20013;-67
2023/08/06 09:50:41;;;;;;;11.10;4.88;;;12.90;81.50;;;;;;5056826;28;20455;-67
2023/08/06 09:53:09;;;;;;;8.27;4.43;;;12.80;81.80;;;;;;5056815;28;20040;-67
2023/08/06 09:55:38;;;;;;;7.13;4.68;;;12.80;81.90;;;;;;5056770;28;20074;-67
2023/08/06 09:58:07;;;;;;;7.30;4.30;;;12.80;81.90;;;;;;5056593;28;20025;-67
2023/08/06 10:00:35;;;;;;;8.77;4.50;;;13.00;81.70;;;;;;5056563;28;20032;-67
2023/08/06 10:03:02;;;;;;;8.13;4.65;;;13.00;81.50;;;;;;5055562;28;20029;-68
2023/08/06 10:05:31;;;;;;;7.97;4.53;;;13.00;81.20;;;;;;5056056;28;20064;-71
2023/08/06 10:08:02;;;;;;;8.82;4.72;;;13.10;81.10;;;;;;5055724;28;20371;-72
2023/08/06 10:10:31;;;;;;;7.15;4.47;;;13.10;81.10;;;;;;5056523;28;20048;-72
2023/08/06 10:13:01;;;;;;;10.70;4.97;;;13.20;80.70;;;;;;5056539;28;20021;-72
2023/08/06 10:15:31;;;;;;;6.57;4.53;;;13.20;80.20;;;;;;5055423;28;20078;-71
2023/08/06 10:18:01;;;;;;;8.27;4.93;;;13.10;81.10;;;;;;5056778;28;20021;-70
2023/08/06 10:20:35;;;;;;;8.07;4.80;;;12.90;82.00;;;;;;5056289;28;20029;-70
2023/08/06 10:23:07;;;;;;;10.75;4.93;;;13.00;81.70;;;;;;5055255;28;20095;-70
2023/08/06 10:25:40;;;;;;;8.52;5.03;;;13.10;81.70;;;;;;5055268;28;20112;-72
2023/08/06 10:28:17;;;;;;;5.75;4.70;;;13.00;81.20;;;;;;5056009;28;20450;-70
2023/08/06 10:30:46;;;;;;;10.75;4.95;;;13.00;81.60;;;;;;5055208;28;20326;-70
2023/08/06 10:33:14;;;;;;;7.10;4.70;;;13.00;81.20;;;;;;5055422;28;20029;-70
2023/08/06 10:35:49;;;;;;;6.85;4.60;;;13.00;80.90;;;;;;5055437;28;20029;-69
2023/08/06 10:38:26;;;;;;;7.95;5.00;;;13.00;80.30;;;;;;5055673;28;20469;-70
2023/08/06 10:40:57;;;;;;;7.25;4.72;;;13.00;80.10;;;;;;5054810;28;20028;-70
2023/08/06 10:43:30;;;;;;;8.18;4.57;;;13.00;80.30;;;;;;5055823;28;20017;-69
2023/08/06 10:46:00;;;;;;;7.03;4.80;;;13.00;80.70;;;;;;5054701;28;20395;-70
2023/08/06 10:48:38;;;;;;;6.20;4.60;;;12.90;80.90;;;;;;5054696;28;20355;-69
2023/08/06 10:51:10;;;;;;;4.90;4.10;;;12.60;82.30;;;;;;5054844;28;20020;-69
2023/08/06 10:53:42;;;;;;;9.55;4.35;;;12.50;82.90;;;;;;5038665;28;20074;-70
2023/08/06 10:56:30;;;;;;;8.10;4.63;;;12.30;83.50;;;;;;5055657;28;20025;-70
2023/08/06 10:58:59;;;;;;;8.73;4.82;;;12.20;83.80;;;;;;5055785;28;20064;-70
2023/08/06 11:01:30;;;;;;;9.25;4.72;;;12.20;84.10;;;;;;5055094;28;20040;-70
2023/08/06 11:04:01;;;;;;;7.88;5.00;;;12.20;83.90;;;;;;5054591;28;20447;-70
2023/08/06 11:06:29;;;;;;;8.90;5.18;;;12.10;84.00;;;;;;5055805;28;20041;-70
2023/08/06 11:08:56;;;;;;;8.43;5.38;;;12.00;84.30;;;;;;5054644;28;20443;-70
2023/08/06 11:11:24;;;;;;;8.70;5.60;;;12.00;84.30;;;;;;5055253;28;20032;-68
2023/08/06 11:13:53;;;;;;;8.55;5.82;;;12.10;84.40;;;;;;5055522;28;20024;-69
2023/08/06 11:16:26;;;;;;;11.25;7.43;;;12.20;83.70;;;;;;5054403;28;20029;-69
2023/08/06 11:18:54;;;;;;;16.52;7.82;;;12.10;83.70;;;;;;5054220;28;20033;-67
2023/08/06 11:21:24;;;;;;;13.77;7.53;;;11.90;84.50;;;;;;5054155;28;20049;-67
2023/08/06 11:23:53;;;;;;;13.80;9.05;;;11.90;84.80;;;;;;5054101;28;20021;-67
2023/08/06 11:26:23;;;;;;;12.48;7.88;;;11.70;85.30;;;;;;5055115;28;20143;-67
2023/08/06 11:28:51;;;;;;;12.63;8.88;;;11.50;85.80;;;;;;5055027;28;20031;-67
2023/08/06 11:31:25;;;;;;;13.05;7.80;;;11.40;86.40;;;;;;5054645;28;20028;-65
2023/08/06 11:33:56;;;;;;;12.25;8.02;;;11.40;86.90;;;;;;5054960;28;20017;-67
2023/08/06 11:36:35;;;;;;;11.55;7.30;;;11.40;86.60;;;;;;5055050;28;20049;-66
2023/08/06 11:39:06;;;;;;;14.50;7.18;;;11.40;86.70;;;;;;5054978;28;20032;-67
2023/08/06 11:41:34;;;;;;;12.07;6.85;;;11.40;86.40;;;;;;5055097;28;20095;-67
2023/08/06 11:44:02;;;;;;;10.70;6.80;;;11.50;86.60;;;;;;5054896;28;20025;-67
2023/08/06 11:46:29;;;;;;;10.88;6.75;;;11.50;85.70;;;;;;5054866;28;20404;-67
2023/08/06 11:48:59;;;;;;;12.10;7.13;;;11.60;85.20;;;;;;5053929;28;20071;-67
2023/08/06 11:51:27;;;;;;;10.18;6.57;;;11.60;85.10;;;;;;5054906;28;20361;-67
2023/08/06 11:53:59;;;;;;;11.57;7.40;;;11.60;85.10;;;;;;5054899;28;20079;-67
2023/08/06 11:56:27;;;;;;;10.65;7.22;;;11.50;85.50;;;;;;5054813;28;20079;-67
2023/08/06 11:58:56;;;;;;;11.90;7.10;;;11.50;85.50;;;;;;5054636;28;20025;-67
2023/08/06 12:01:24;;;;;;;12.10;6.95;;;11.40;85.60;;;;;;5054093;28;20104;-66
2023/08/06 12:03:52;;;;;;;7.93;6.20;;;11.30;85.40;;;;;;5053621;28;20347;-64
2023/08/06 12:06:20;;;;;;;11.82;7.25;;;11.10;85.70;;;;;;5053485;28;20115;-64
2023/08/06 12:08:48;;;;;;;10.65;7.45;;;11.10;85.90;;;;;;5054614;28;20071;-64
2023/08/06 12:11:15;;;;;;;11.63;7.22;;;11.00;86.50;;;;;;5053673;28;20075;-64
2023/08/06 12:13:43;;;;;;;10.00;7.47;;;10.90;87.20;;;;;;5053671;28;20017;-64
2023/08/06 12:16:10;;;;;;;10.65;7.65;;;10.90;87.20;;;;;;5053589;28;20036;-64
2023/08/06 12:18:38;;;;;;;10.77;7.35;;;10.70;87.60;;;;;;5053603;28;20028;-64
2023/08/06 12:21:05;;;;;;;8.68;6.70;;;10.80;87.60;;;;;;5054509;28;20036;-64
2023/08/06 12:23:33;;;;;;;11.70;7.40;;;10.90;87.30;;;;;;5054713;28;20025;-64
2023/08/06 12:26:00;;;;;;;12.23;7.50;;;10.80;87.50;;;;;;5053549;28;20017;-64
2023/08/06 12:28:28;;;;;;;17.45;8.05;;;10.80;87.60;;;;;;5054486;28;20076;-65
2023/08/06 12:30:55;;;;;;;10.32;6.60;;;10.80;87.70;;;;;;5055703;28;20079;-64
2023/08/06 12:33:23;;;;;;;10.90;7.43;;;10.90;87.70;;;;;;5057418;28;20025;-64
2023/08/06 12:35:53;;;;;;;13.52;7.60;;;11.00;87.30;;;;;;5057385;28;20025;-65
2023/08/06 12:38:20;;;;;;;13.10;7.75;;;11.00;87.20;;;;;;5058217;28;20042;-65
2023/08/06 12:40:48;;;;;;;13.15;7.47;;;11.00;87.40;;;;;;5058203;28;20148;-64
2023/08/06 12:43:15;;;;;;;15.70;7.65;;;10.90;87.50;;;;;;5056870;28;20108;-65
2023/08/06 12:45:43;;;;;;;13.52;7.85;;;10.70;87.80;;;;;;5058219;28;20017;-64
2023/08/06 12:48:10;;;;;;;11.38;7.57;;;10.60;88.20;;;;;;5058036;28;20151;-64
2023/08/06 12:50:37;;;;;;;10.50;7.22;;;10.60;88.30;;;;;;5057199;28;20040;-64
2023/08/06 12:53:05;;;;;;;12.80;7.07;;;10.60;88.10;;;;;;5057941;28;20049;-65